sensor_id;sensor_type;location;lat;lon;timestamp;P1;durP1;ratioP1;P2;durP2;ratioP2
25988;SDS011;13778;48.236;9.894;2023-09-19T00:00:10;4.18;;;2.55;;
25988;SDS011;13778;48.236;9.894;2023-09-19T00:03:02;3.63;;;2.70;;
25988;SDS011;13778;48.236;9.894;2023-09-19T00:05:53;4.65;;;2.80;;
25988;SDS011;13778;48.236;9.894;2023-09-19T00:08:46;7.00;;;3.20;;
25988;SDS011;13778;48.236;9.894;2023-09-19T00:11:37;4.00;;;2.83;;
25988;SDS011;13778;48.236;9.894;2023-09-19T00:14:27;5.18;;;2.47;;
25988;SDS011;13778;48.236;9.894;2023-09-19T00:17:18;8.00;;;3.15;;
25988;SDS011;13778;48.236;9.894;2023-09-19T00:20:08;10.82;;;2.75;;
25988;SDS011;13778;48.236;9.894;2023-09-19T00:23:01;3.55;;;2.60;;
25988;SDS011;13778;48.236;9.894;2023-09-19T00:25:59;3.92;;;2.97;;
25988;SDS011;13778;48.236;9.894;2023-09-19T00:28:51;5.07;;;2.95;;
25988;SDS011;13778;48.236;9.894;2023-09-19T00:31:42;4.05;;;2.65;;
25988;SDS011;13778;48.236;9.894;2023-09-19T00:34:33;4.85;;;2.85;;
25988;SDS011;13778;48.236;9.894;2023-09-19T00:37:24;7.93;;;3.08;;
25988;SDS011;13778;48.236;9.894;2023-09-19T00:40:15;5.97;;;2.92;;
25988;SDS011;13778;48.236;9.894;2023-09-19T00:43:06;5.97;;;2.83;;
25988;SDS011;13778;48.236;9.894;2023-09-19T00:48:49;4.88;;;2.97;;
25988;SDS011;13778;48.236;9.894;2023-09-19T00:51:40;5.22;;;3.15;;
25988;SDS011;13778;48.236;9.894;2023-09-19T00:54:34;4.68;;;2.88;;
25988;SDS011;13778;48.236;9.894;2023-09-19T00:57:24;8.88;;;3.10;;
25988;SDS011;13778;48.236;9.894;2023-09-19T01:00:16;4.63;;;2.55;;
25988;SDS011;13778;48.236;9.894;2023-09-19T01:03:09;5.53;;;2.85;;
25988;SDS011;13778;48.236;9.894;2023-09-19T01:05:59;7.38;;;2.60;;
25988;SDS011;13778;48.236;9.894;2023-09-19T01:08:51;4.53;;;2.47;;
25988;SDS011;13778;48.236;9.894;2023-09-19T01:11:45;3.22;;;2.42;;
25988;SDS011;13778;48.236;9.894;2023-09-19T01:14:38;4.20;;;3.08;;
25988;SDS011;13778;48.236;9.894;2023-09-19T01:17:34;7.95;;;2.90;;
25988;SDS011;13778;48.236;9.894;2023-09-19T01:20:32;5.32;;;2.55;;
25988;SDS011;13778;48.236;9.894;2023-09-19T01:23:28;4.07;;;2.78;;
25988;SDS011;13778;48.236;9.894;2023-09-19T01:26:25;4.25;;;2.90;;
25988;SDS011;13778;48.236;9.894;2023-09-19T01:29:23;5.95;;;2.60;;
25988;SDS011;13778;48.236;9.894;2023-09-19T01:32:23;4.90;;;2.38;;
25988;SDS011;13778;48.236;9.894;2023-09-19T01:35:14;3.97;;;2.40;;
25988;SDS011;13778;48.236;9.894;2023-09-19T01:38:04;6.28;;;3.10;;
25988;SDS011;13778;48.236;9.894;2023-09-19T01:40:57;4.72;;;2.75;;
25988;SDS011;13778;48.236;9.894;2023-09-19T01:43:54;4.47;;;2.42;;
25988;SDS011;13778;48.236;9.894;2023-09-19T01:46:45;7.13;;;2.67;;
25988;SDS011;13778;48.236;9.894;2023-09-19T01:49:40;5.10;;;2.63;;
25988;SDS011;13778;48.236;9.894;2023-09-19T01:52:36;4.20;;;2.17;;
25988;SDS011;13778;48.236;9.894;2023-09-19T01:55:33;4.60;;;2.70;;
25988;SDS011;13778;48.236;9.894;2023-09-19T01:58:27;3.53;;;2.35;;
25988;SDS011;13778;48.236;9.894;2023-09-19T02:01:21;6.28;;;2.85;;
25988;SDS011;13778;48.236;9.894;2023-09-19T02:04:12;5.45;;;2.97;;
25988;SDS011;13778;48.236;9.894;2023-09-19T02:07:04;4.67;;;2.60;;
25988;SDS011;13778;48.236;9.894;2023-09-19T02:09:57;5.45;;;2.70;;
25988;SDS011;13778;48.236;9.894;2023-09-19T02:12:49;7.55;;;2.85;;
25988;SDS011;13778;48.236;9.894;2023-09-19T02:15:39;4.07;;;2.83;;
25988;SDS011;13778;48.236;9.894;2023-09-19T02:18:30;4.30;;;2.50;;
25988;SDS011;13778;48.236;9.894;2023-09-19T02:21:24;3.70;;;2.47;;
25988;SDS011;13778;48.236;9.894;2023-09-19T02:24:15;6.07;;;2.50;;
25988;SDS011;13778;48.236;9.894;2023-09-19T02:29:56;4.85;;;2.60;;
25988;SDS011;13778;48.236;9.894;2023-09-19T02:32:47;3.08;;;2.13;;
25988;SDS011;13778;48.236;9.894;2023-09-19T02:35:38;4.82;;;2.28;;
25988;SDS011;13778;48.236;9.894;2023-09-19T02:38:29;4.15;;;2.65;;
25988;SDS011;13778;48.236;9.894;2023-09-19T02:41:21;4.90;;;2.67;;
25988;SDS011;13778;48.236;9.894;2023-09-19T02:44:11;3.70;;;2.97;;
25988;SDS011;13778;48.236;9.894;2023-09-19T02:47:02;2.33;;;2.00;;
25988;SDS011;13778;48.236;9.894;2023-09-19T02:49:52;4.10;;;2.40;;
25988;SDS011;13778;48.236;9.894;2023-09-19T02:52:43;5.53;;;2.35;;
25988;SDS011;13778;48.236;9.894;2023-09-19T02:55:33;4.78;;;1.90;;
25988;SDS011;13778;48.236;9.894;2023-09-19T02:58:25;7.68;;;2.55;;
25988;SDS011;13778;48.236;9.894;2023-09-19T03:01:17;6.18;;;2.53;;
25988;SDS011;13778;48.236;9.894;2023-09-19T03:04:07;4.82;;;2.38;;
25988;SDS011;13778;48.236;9.894;2023-09-19T03:07:00;6.03;;;2.53;;
25988;SDS011;13778;48.236;9.894;2023-09-19T03:09:50;4.97;;;2.33;;
25988;SDS011;13778;48.236;9.894;2023-09-19T03:12:41;6.18;;;2.10;;
25988;SDS011;13778;48.236;9.894;2023-09-19T03:15:34;5.43;;;2.08;;
25988;SDS011;13778;48.236;9.894;2023-09-19T03:18:26;6.45;;;2.15;;
25988;SDS011;13778;48.236;9.894;2023-09-19T03:21:17;2.97;;;2.10;;
25988;SDS011;13778;48.236;9.894;2023-09-19T03:24:08;3.47;;;2.47;;
25988;SDS011;13778;48.236;9.894;2023-09-19T03:26:59;4.45;;;2.10;;
25988;SDS011;13778;48.236;9.894;2023-09-19T03:29:50;2.80;;;1.90;;
25988;SDS011;13778;48.236;9.894;2023-09-19T03:32:45;3.88;;;2.00;;
25988;SDS011;13778;48.236;9.894;2023-09-19T03:35:36;5.03;;;2.00;;
25988;SDS011;13778;48.236;9.894;2023-09-19T03:38:27;5.77;;;2.03;;
25988;SDS011;13778;48.236;9.894;2023-09-19T03:41:18;6.68;;;2.72;;
25988;SDS011;13778;48.236;9.894;2023-09-19T03:44:09;3.60;;;2.03;;
25988;SDS011;13778;48.236;9.894;2023-09-19T03:46:59;2.47;;;2.10;;
25988;SDS011;13778;48.236;9.894;2023-09-19T03:49:51;3.03;;;2.20;;
25988;SDS011;13778;48.236;9.894;2023-09-19T03:52:42;4.38;;;2.35;;
25988;SDS011;13778;48.236;9.894;2023-09-19T03:55:32;2.08;;;1.77;;
25988;SDS011;13778;48.236;9.894;2023-09-19T03:58:24;3.17;;;1.92;;
25988;SDS011;13778;48.236;9.894;2023-09-19T04:01:14;4.53;;;2.05;;
25988;SDS011;13778;48.236;9.894;2023-09-19T04:04:05;2.47;;;1.88;;
25988;SDS011;13778;48.236;9.894;2023-09-19T04:06:59;3.05;;;1.80;;
25988;SDS011;13778;48.236;9.894;2023-09-19T04:09:49;2.97;;;1.92;;
25988;SDS011;13778;48.236;9.894;2023-09-19T04:12:50;5.85;;;2.30;;
25988;SDS011;13778;48.236;9.894;2023-09-19T04:15:40;3.63;;;1.98;;
25988;SDS011;13778;48.236;9.894;2023-09-19T04:18:31;4.13;;;1.80;;
25988;SDS011;13778;48.236;9.894;2023-09-19T04:21:22;3.53;;;1.80;;
25988;SDS011;13778;48.236;9.894;2023-09-19T04:24:14;2.97;;;2.13;;
25988;SDS011;13778;48.236;9.894;2023-09-19T04:27:04;3.65;;;1.88;;
25988;SDS011;13778;48.236;9.894;2023-09-19T04:29:55;2.80;;;1.67;;
25988;SDS011;13778;48.236;9.894;2023-09-19T04:32:48;4.20;;;1.60;;
25988;SDS011;13778;48.236;9.894;2023-09-19T04:35:39;3.88;;;1.73;;
25988;SDS011;13778;48.236;9.894;2023-09-19T04:41:22;3.15;;;1.90;;
25988;SDS011;13778;48.236;9.894;2023-09-19T04:44:13;5.10;;;1.70;;
25988;SDS011;13778;48.236;9.894;2023-09-19T04:47:04;3.53;;;1.93;;
25988;SDS011;13778;48.236;9.894;2023-09-19T04:49:55;2.08;;;1.38;;
25988;SDS011;13778;48.236;9.894;2023-09-19T04:52:48;3.13;;;1.90;;
25988;SDS011;13778;48.236;9.894;2023-09-19T04:55:39;3.75;;;1.55;;
25988;SDS011;13778;48.236;9.894;2023-09-19T04:58:31;4.57;;;2.03;;
25988;SDS011;13778;48.236;9.894;2023-09-19T05:01:21;1.55;;;1.30;;
25988;SDS011;13778;48.236;9.894;2023-09-19T05:04:12;2.88;;;1.38;;
25988;SDS011;13778;48.236;9.894;2023-09-19T05:07:03;1.95;;;1.45;;
25988;SDS011;13778;48.236;9.894;2023-09-19T05:09:54;1.77;;;1.45;;
25988;SDS011;13778;48.236;9.894;2023-09-19T05:12:44;1.80;;;1.65;;
25988;SDS011;13778;48.236;9.894;2023-09-19T05:15:38;9.63;;;1.67;;
25988;SDS011;13778;48.236;9.894;2023-09-19T05:18:29;2.33;;;1.45;;
25988;SDS011;13778;48.236;9.894;2023-09-19T05:21:20;4.35;;;1.27;;
25988;SDS011;13778;48.236;9.894;2023-09-19T05:24:12;2.08;;;1.60;;
25988;SDS011;13778;48.236;9.894;2023-09-19T05:27:03;4.53;;;1.75;;
25988;SDS011;13778;48.236;9.894;2023-09-19T05:29:56;4.43;;;1.45;;
25988;SDS011;13778;48.236;9.894;2023-09-19T05:32:48;2.90;;;1.42;;
25988;SDS011;13778;48.236;9.894;2023-09-19T05:35:40;1.67;;;1.48;;
25988;SDS011;13778;48.236;9.894;2023-09-19T05:38:30;4.03;;;2.03;;
25988;SDS011;13778;48.236;9.894;2023-09-19T05:41:21;2.53;;;1.53;;
25988;SDS011;13778;48.236;9.894;2023-09-19T05:44:13;3.43;;;1.90;;
25988;SDS011;13778;48.236;9.894;2023-09-19T05:47:04;5.00;;;1.55;;
25988;SDS011;13778;48.236;9.894;2023-09-19T05:49:56;1.80;;;1.63;;
25988;SDS011;13778;48.236;9.894;2023-09-19T05:55:36;3.63;;;1.65;;
25988;SDS011;13778;48.236;9.894;2023-09-19T05:58:27;4.78;;;1.70;;
25988;SDS011;13778;48.236;9.894;2023-09-19T06:01:17;4.60;;;1.70;;
25988;SDS011;13778;48.236;9.894;2023-09-19T06:04:08;4.72;;;1.60;;
25988;SDS011;13778;48.236;9.894;2023-09-19T06:07:00;3.08;;;1.65;;
25988;SDS011;13778;48.236;9.894;2023-09-19T06:09:52;3.30;;;1.80;;
25988;SDS011;13778;48.236;9.894;2023-09-19T06:12:43;2.33;;;1.58;;
25988;SDS011;13778;48.236;9.894;2023-09-19T06:15:34;3.92;;;1.50;;
25988;SDS011;13778;48.236;9.894;2023-09-19T06:18:25;4.53;;;1.90;;
25988;SDS011;13778;48.236;9.894;2023-09-19T06:21:16;5.88;;;1.55;;
25988;SDS011;13778;48.236;9.894;2023-09-19T06:24:08;4.38;;;1.38;;
25988;SDS011;13778;48.236;9.894;2023-09-19T06:26:58;3.53;;;1.55;;
25988;SDS011;13778;48.236;9.894;2023-09-19T06:29:50;2.53;;;1.67;;
25988;SDS011;13778;48.236;9.894;2023-09-19T06:32:41;2.05;;;1.60;;
25988;SDS011;13778;48.236;9.894;2023-09-19T06:35:33;5.50;;;1.60;;
25988;SDS011;13778;48.236;9.894;2023-09-19T06:38:24;4.23;;;1.60;;
25988;SDS011;13778;48.236;9.894;2023-09-19T06:41:16;2.75;;;1.48;;
25988;SDS011;13778;48.236;9.894;2023-09-19T06:44:07;2.83;;;1.70;;
25988;SDS011;13778;48.236;9.894;2023-09-19T06:46:58;2.25;;;1.25;;
25988;SDS011;13778;48.236;9.894;2023-09-19T06:49:49;5.22;;;1.40;;
25988;SDS011;13778;48.236;9.894;2023-09-19T06:52:40;2.83;;;1.50;;
25988;SDS011;13778;48.236;9.894;2023-09-19T06:55:31;3.00;;;1.85;;
25988;SDS011;13778;48.236;9.894;2023-09-19T06:58:23;4.45;;;1.35;;
25988;SDS011;13778;48.236;9.894;2023-09-19T07:01:13;1.80;;;1.42;;
25988;SDS011;13778;48.236;9.894;2023-09-19T07:04:04;5.13;;;1.95;;
25988;SDS011;13778;48.236;9.894;2023-09-19T07:06:54;2.28;;;1.40;;
25988;SDS011;13778;48.236;9.894;2023-09-19T07:09:45;3.88;;;1.48;;
25988;SDS011;13778;48.236;9.894;2023-09-19T07:12:38;2.55;;;1.60;;
25988;SDS011;13778;48.236;9.894;2023-09-19T07:15:32;3.15;;;1.25;;
25988;SDS011;13778;48.236;9.894;2023-09-19T07:18:24;3.47;;;1.40;;
25988;SDS011;13778;48.236;9.894;2023-09-19T07:21:15;4.50;;;1.45;;
25988;SDS011;13778;48.236;9.894;2023-09-19T07:24:06;3.58;;;1.50;;
25988;SDS011;13778;48.236;9.894;2023-09-19T07:26:57;5.68;;;1.67;;
25988;SDS011;13778;48.236;9.894;2023-09-19T07:29:47;3.00;;;1.30;;
25988;SDS011;13778;48.236;9.894;2023-09-19T07:32:39;3.45;;;1.52;;
25988;SDS011;13778;48.236;9.894;2023-09-19T07:35:30;4.47;;;1.23;;
25988;SDS011;13778;48.236;9.894;2023-09-19T07:38:20;4.72;;;1.50;;
25988;SDS011;13778;48.236;9.894;2023-09-19T07:41:12;4.32;;;1.40;;
25988;SDS011;13778;48.236;9.894;2023-09-19T07:44:02;5.28;;;1.42;;
25988;SDS011;13778;48.236;9.894;2023-09-19T07:46:53;2.92;;;1.40;;
25988;SDS011;13778;48.236;9.894;2023-09-19T07:49:47;1.77;;;1.55;;
25988;SDS011;13778;48.236;9.894;2023-09-19T07:52:37;3.55;;;1.60;;
25988;SDS011;13778;48.236;9.894;2023-09-19T07:55:29;5.57;;;1.63;;
25988;SDS011;13778;48.236;9.894;2023-09-19T07:58:19;1.95;;;1.33;;
25988;SDS011;13778;48.236;9.894;2023-09-19T08:01:10;2.22;;;1.35;;
25988;SDS011;13778;48.236;9.894;2023-09-19T08:04:01;3.50;;;1.20;;
25988;SDS011;13778;48.236;9.894;2023-09-19T08:06:54;3.20;;;1.58;;
25988;SDS011;13778;48.236;9.894;2023-09-19T08:09:45;2.97;;;1.55;;
25988;SDS011;13778;48.236;9.894;2023-09-19T08:12:38;2.33;;;1.40;;
25988;SDS011;13778;48.236;9.894;2023-09-19T08:15:35;2.88;;;1.27;;
25988;SDS011;13778;48.236;9.894;2023-09-19T08:18:25;2.80;;;1.40;;
25988;SDS011;13778;48.236;9.894;2023-09-19T08:21:19;1.30;;;1.20;;
25988;SDS011;13778;48.236;9.894;2023-09-19T08:24:10;4.53;;;1.73;;
25988;SDS011;13778;48.236;9.894;2023-09-19T08:32:43;1.85;;;1.40;;
25988;SDS011;13778;48.236;9.894;2023-09-19T08:35:35;6.85;;;2.40;;
25988;SDS011;13778;48.236;9.894;2023-09-19T08:41:20;2.00;;;1.20;;
25988;SDS011;13778;48.236;9.894;2023-09-19T08:47:01;3.70;;;1.48;;
25988;SDS011;13778;48.236;9.894;2023-09-19T08:49:57;7.72;;;1.58;;
25988;SDS011;13778;48.236;9.894;2023-09-19T08:52:49;3.42;;;1.50;;
25988;SDS011;13778;48.236;9.894;2023-09-19T08:55:42;4.20;;;1.33;;
25988;SDS011;13778;48.236;9.894;2023-09-19T08:58:38;1.40;;;1.30;;
25988;SDS011;13778;48.236;9.894;2023-09-19T09:01:30;3.08;;;1.52;;
25988;SDS011;13778;48.236;9.894;2023-09-19T09:04:21;4.00;;;1.40;;
25988;SDS011;13778;48.236;9.894;2023-09-19T09:07:12;3.22;;;1.40;;
25988;SDS011;13778;48.236;9.894;2023-09-19T09:10:03;2.58;;;1.42;;
25988;SDS011;13778;48.236;9.894;2023-09-19T09:12:53;3.83;;;1.38;;
25988;SDS011;13778;48.236;9.894;2023-09-19T09:15:46;3.72;;;1.10;;
25988;SDS011;13778;48.236;9.894;2023-09-19T09:18:37;2.53;;;1.30;;
25988;SDS011;13778;48.236;9.894;2023-09-19T09:21:28;3.40;;;1.40;;
25988;SDS011;13778;48.236;9.894;2023-09-19T09:24:28;2.38;;;1.10;;
25988;SDS011;13778;48.236;9.894;2023-09-19T09:27:19;2.72;;;1.35;;
25988;SDS011;13778;48.236;9.894;2023-09-19T09:30:09;6.07;;;1.25;;
25988;SDS011;13778;48.236;9.894;2023-09-19T09:33:09;3.17;;;0.95;;
25988;SDS011;13778;48.236;9.894;2023-09-19T09:36:01;7.60;;;1.95;;
25988;SDS011;13778;48.236;9.894;2023-09-19T09:38:52;5.03;;;0.95;;
25988;SDS011;13778;48.236;9.894;2023-09-19T09:44:35;1.77;;;1.13;;
25988;SDS011;13778;48.236;9.894;2023-09-19T09:47:40;3.45;;;1.00;;
25988;SDS011;13778;48.236;9.894;2023-09-19T09:50:32;1.85;;;1.35;;
25988;SDS011;13778;48.236;9.894;2023-09-19T09:53:34;1.13;;;1.00;;
25988;SDS011;13778;48.236;9.894;2023-09-19T09:56:25;1.17;;;1.05;;
25988;SDS011;13778;48.236;9.894;2023-09-19T09:59:16;3.50;;;1.17;;
25988;SDS011;13778;48.236;9.894;2023-09-19T10:02:07;2.13;;;1.30;;
25988;SDS011;13778;48.236;9.894;2023-09-19T10:05:10;2.42;;;1.42;;
25988;SDS011;13778;48.236;9.894;2023-09-19T10:08:11;1.73;;;0.93;;
25988;SDS011;13778;48.236;9.894;2023-09-19T10:11:14;1.55;;;1.20;;
25988;SDS011;13778;48.236;9.894;2023-09-19T10:14:05;3.25;;;0.93;;
25988;SDS011;13778;48.236;9.894;2023-09-19T10:16:58;3.03;;;0.98;;
25988;SDS011;13778;48.236;9.894;2023-09-19T10:19:54;3.28;;;1.10;;
25988;SDS011;13778;48.236;9.894;2023-09-19T10:22:46;1.33;;;1.00;;
25988;SDS011;13778;48.236;9.894;2023-09-19T10:25:48;1.77;;;1.23;;
25988;SDS011;13778;48.236;9.894;2023-09-19T10:28:38;3.38;;;1.20;;
25988;SDS011;13778;48.236;9.894;2023-09-19T10:31:29;2.42;;;1.23;;
25988;SDS011;13778;48.236;9.894;2023-09-19T10:34:20;1.83;;;1.10;;
25988;SDS011;13778;48.236;9.894;2023-09-19T10:37:12;3.88;;;0.93;;
25988;SDS011;13778;48.236;9.894;2023-09-19T10:40:03;2.95;;;1.17;;
25988;SDS011;13778;48.236;9.894;2023-09-19T10:42:56;1.70;;;1.27;;
25988;SDS011;13778;48.236;9.894;2023-09-19T10:45:50;2.30;;;1.20;;
25988;SDS011;13778;48.236;9.894;2023-09-19T10:48:42;1.33;;;1.15;;
25988;SDS011;13778;48.236;9.894;2023-09-19T10:51:38;1.85;;;1.30;;
25988;SDS011;13778;48.236;9.894;2023-09-19T10:54:30;2.85;;;1.40;;
25988;SDS011;13778;48.236;9.894;2023-09-19T10:57:23;2.20;;;1.50;;
25988;SDS011;13778;48.236;9.894;2023-09-19T11:00:18;1.25;;;1.15;;
25988;SDS011;13778;48.236;9.894;2023-09-19T11:03:17;1.98;;;1.05;;
25988;SDS011;13778;48.236;9.894;2023-09-19T11:06:09;3.15;;;1.25;;
25988;SDS011;13778;48.236;9.894;2023-09-19T11:09:03;2.35;;;1.30;;
25988;SDS011;13778;48.236;9.894;2023-09-19T11:12:11;1.60;;;1.00;;
25988;SDS011;13778;48.236;9.894;2023-09-19T11:15:01;3.03;;;1.13;;
25988;SDS011;13778;48.236;9.894;2023-09-19T11:17:55;2.08;;;1.10;;
25988;SDS011;13778;48.236;9.894;2023-09-19T11:20:47;1.00;;;0.90;;
25988;SDS011;13778;48.236;9.894;2023-09-19T11:23:40;2.30;;;1.52;;
25988;SDS011;13778;48.236;9.894;2023-09-19T11:26:40;1.77;;;1.10;;
25988;SDS011;13778;48.236;9.894;2023-09-19T11:29:32;2.22;;;1.70;;
25988;SDS011;13778;48.236;9.894;2023-09-19T11:41:46;3.53;;;1.27;;
25988;SDS011;13778;48.236;9.894;2023-09-19T11:44:45;2.58;;;1.10;;
25988;SDS011;13778;48.236;9.894;2023-09-19T11:47:36;1.60;;;0.82;;
25988;SDS011;13778;48.236;9.894;2023-09-19T11:50:26;2.45;;;1.10;;
25988;SDS011;13778;48.236;9.894;2023-09-19T11:53:17;3.00;;;1.60;;
25988;SDS011;13778;48.236;9.894;2023-09-19T11:56:09;1.23;;;0.90;;
25988;SDS011;13778;48.236;9.894;2023-09-19T11:59:01;2.05;;;1.58;;
25988;SDS011;13778;48.236;9.894;2023-09-19T12:01:53;1.45;;;1.30;;
25988;SDS011;13778;48.236;9.894;2023-09-19T12:04:46;1.27;;;1.13;;
25988;SDS011;13778;48.236;9.894;2023-09-19T12:07:42;1.70;;;1.40;;
25988;SDS011;13778;48.236;9.894;2023-09-19T12:10:43;1.92;;;1.23;;
25988;SDS011;13778;48.236;9.894;2023-09-19T12:13:34;1.35;;;1.25;;
25988;SDS011;13778;48.236;9.894;2023-09-19T12:16:28;3.35;;;1.20;;
25988;SDS011;13778;48.236;9.894;2023-09-19T12:19:20;3.13;;;0.88;;
25988;SDS011;13778;48.236;9.894;2023-09-19T12:22:11;1.13;;;1.00;;
25988;SDS011;13778;48.236;9.894;2023-09-19T12:25:05;3.60;;;1.20;;
25988;SDS011;13778;48.236;9.894;2023-09-19T12:27:56;2.17;;;1.60;;
25988;SDS011;13778;48.236;9.894;2023-09-19T12:30:48;5.20;;;1.30;;
25988;SDS011;13778;48.236;9.894;2023-09-19T12:33:40;1.55;;;1.30;;
25988;SDS011;13778;48.236;9.894;2023-09-19T12:39:23;3.75;;;1.20;;
25988;SDS011;13778;48.236;9.894;2023-09-19T12:42:15;2.20;;;1.02;;
25988;SDS011;13778;48.236;9.894;2023-09-19T12:45:06;5.37;;;1.50;;
25988;SDS011;13778;48.236;9.894;2023-09-19T12:51:11;2.83;;;1.80;;
25988;SDS011;13778;48.236;9.894;2023-09-19T12:54:01;3.80;;;1.30;;
25988;SDS011;13778;48.236;9.894;2023-09-19T12:56:54;2.95;;;1.52;;
25988;SDS011;13778;48.236;9.894;2023-09-19T12:59:45;2.97;;;1.25;;
25988;SDS011;13778;48.236;9.894;2023-09-19T13:02:36;5.38;;;1.40;;
25988;SDS011;13778;48.236;9.894;2023-09-19T13:08:34;7.07;;;1.27;;
25988;SDS011;13778;48.236;9.894;2023-09-19T13:11:35;2.30;;;1.40;;
25988;SDS011;13778;48.236;9.894;2023-09-19T13:14:28;2.05;;;1.20;;
25988;SDS011;13778;48.236;9.894;2023-09-19T13:17:20;1.73;;;1.17;;
25988;SDS011;13778;48.236;9.894;2023-09-19T13:20:21;2.60;;;1.35;;
25988;SDS011;13778;48.236;9.894;2023-09-19T13:23:25;2.15;;;1.30;;
25988;SDS011;13778;48.236;9.894;2023-09-19T13:26:17;2.75;;;1.45;;
25988;SDS011;13778;48.236;9.894;2023-09-19T13:29:08;4.57;;;1.80;;
25988;SDS011;13778;48.236;9.894;2023-09-19T13:31:58;2.08;;;1.50;;
25988;SDS011;13778;48.236;9.894;2023-09-19T13:34:49;2.17;;;1.10;;
25988;SDS011;13778;48.236;9.894;2023-09-19T13:37:40;2.53;;;1.73;;
25988;SDS011;13778;48.236;9.894;2023-09-19T13:40:32;1.65;;;1.00;;
25988;SDS011;13778;48.236;9.894;2023-09-19T13:43:25;4.22;;;1.20;;
25988;SDS011;13778;48.236;9.894;2023-09-19T13:46:16;3.30;;;1.40;;
25988;SDS011;13778;48.236;9.894;2023-09-19T13:49:07;2.45;;;1.25;;
25988;SDS011;13778;48.236;9.894;2023-09-19T13:51:58;2.22;;;1.50;;
25988;SDS011;13778;48.236;9.894;2023-09-19T13:54:50;2.75;;;1.52;;
25988;SDS011;13778;48.236;9.894;2023-09-19T13:57:42;3.72;;;1.80;;
25988;SDS011;13778;48.236;9.894;2023-09-19T14:00:34;1.33;;;1.20;;
25988;SDS011;13778;48.236;9.894;2023-09-19T14:06:17;3.67;;;1.88;;
25988;SDS011;13778;48.236;9.894;2023-09-19T14:09:08;3.17;;;1.73;;
25988;SDS011;13778;48.236;9.894;2023-09-19T14:11:59;2.28;;;1.38;;
25988;SDS011;13778;48.236;9.894;2023-09-19T14:14:50;1.98;;;1.52;;
25988;SDS011;13778;48.236;9.894;2023-09-19T14:17:42;4.00;;;1.65;;
25988;SDS011;13778;48.236;9.894;2023-09-19T14:20:37;4.47;;;1.67;;
25988;SDS011;13778;48.236;9.894;2023-09-19T14:23:27;3.42;;;1.52;;
25988;SDS011;13778;48.236;9.894;2023-09-19T14:26:18;3.85;;;1.42;;
25988;SDS011;13778;48.236;9.894;2023-09-19T14:29:08;1.83;;;1.40;;
25988;SDS011;13778;48.236;9.894;2023-09-19T14:32:01;1.73;;;1.30;;
25988;SDS011;13778;48.236;9.894;2023-09-19T14:34:52;2.83;;;1.50;;
25988;SDS011;13778;48.236;9.894;2023-09-19T14:40:34;5.97;;;1.40;;
25988;SDS011;13778;48.236;9.894;2023-09-19T14:43:25;4.70;;;1.27;;
25988;SDS011;13778;48.236;9.894;2023-09-19T14:46:15;3.10;;;1.48;;
25988;SDS011;13778;48.236;9.894;2023-09-19T14:49:07;1.77;;;1.48;;
25988;SDS011;13778;48.236;9.894;2023-09-19T14:52:00;2.78;;;1.42;;
25988;SDS011;13778;48.236;9.894;2023-09-19T14:54:53;3.20;;;1.38;;
25988;SDS011;13778;48.236;9.894;2023-09-19T14:57:43;1.67;;;1.52;;
25988;SDS011;13778;48.236;9.894;2023-09-19T15:00:35;2.28;;;1.27;;
25988;SDS011;13778;48.236;9.894;2023-09-19T15:03:25;3.33;;;1.58;;
25988;SDS011;13778;48.236;9.894;2023-09-19T15:06:16;1.60;;;1.20;;
25988;SDS011;13778;48.236;9.894;2023-09-19T15:09:10;4.30;;;1.35;;
25988;SDS011;13778;48.236;9.894;2023-09-19T15:12:00;4.18;;;1.60;;
25988;SDS011;13778;48.236;9.894;2023-09-19T15:14:51;1.65;;;1.25;;
25988;SDS011;13778;48.236;9.894;2023-09-19T15:17:41;3.05;;;1.48;;
25988;SDS011;13778;48.236;9.894;2023-09-19T15:20:32;2.30;;;1.20;;
25988;SDS011;13778;48.236;9.894;2023-09-19T15:23:22;3.90;;;1.30;;
25988;SDS011;13778;48.236;9.894;2023-09-19T15:26:14;3.97;;;1.55;;
25988;SDS011;13778;48.236;9.894;2023-09-19T15:29:09;1.52;;;1.33;;
25988;SDS011;13778;48.236;9.894;2023-09-19T15:31:59;2.65;;;1.50;;
25988;SDS011;13778;48.236;9.894;2023-09-19T15:34:51;2.75;;;1.40;;
25988;SDS011;13778;48.236;9.894;2023-09-19T15:37:41;3.70;;;1.40;;
25988;SDS011;13778;48.236;9.894;2023-09-19T15:40:32;2.55;;;1.20;;
25988;SDS011;13778;48.236;9.894;2023-09-19T15:43:25;2.60;;;1.40;;
25988;SDS011;13778;48.236;9.894;2023-09-19T15:46:15;2.83;;;1.50;;
25988;SDS011;13778;48.236;9.894;2023-09-19T15:49:06;1.63;;;1.15;;
25988;SDS011;13778;48.236;9.894;2023-09-19T15:51:56;1.70;;;1.30;;
25988;SDS011;13778;48.236;9.894;2023-09-19T15:54:46;2.10;;;1.40;;
25988;SDS011;13778;48.236;9.894;2023-09-19T15:57:37;2.40;;;1.45;;
25988;SDS011;13778;48.236;9.894;2023-09-19T16:00:29;3.10;;;1.42;;
25988;SDS011;13778;48.236;9.894;2023-09-19T16:03:19;3.17;;;1.30;;
25988;SDS011;13778;48.236;9.894;2023-09-19T16:06:11;5.32;;;1.38;;
25988;SDS011;13778;48.236;9.894;2023-09-19T16:09:02;2.10;;;1.38;;
25988;SDS011;13778;48.236;9.894;2023-09-19T16:11:53;2.45;;;1.10;;
25988;SDS011;13778;48.236;9.894;2023-09-19T16:14:44;2.00;;;1.65;;
25988;SDS011;13778;48.236;9.894;2023-09-19T16:17:36;1.35;;;1.13;;
25988;SDS011;13778;48.236;9.894;2023-09-19T16:23:17;1.83;;;1.10;;
25988;SDS011;13778;48.236;9.894;2023-09-19T16:26:08;2.50;;;1.40;;
25988;SDS011;13778;48.236;9.894;2023-09-19T16:28:58;2.50;;;1.30;;
25988;SDS011;13778;48.236;9.894;2023-09-19T16:34:42;2.33;;;1.17;;
25988;SDS011;13778;48.236;9.894;2023-09-19T16:37:33;2.65;;;1.45;;
25988;SDS011;13778;48.236;9.894;2023-09-19T16:40:23;2.72;;;1.38;;
25988;SDS011;13778;48.236;9.894;2023-09-19T16:43:14;2.70;;;1.40;;
25988;SDS011;13778;48.236;9.894;2023-09-19T16:46:05;3.20;;;1.35;;
25988;SDS011;13778;48.236;9.894;2023-09-19T16:48:57;2.45;;;1.48;;
25988;SDS011;13778;48.236;9.894;2023-09-19T16:51:49;3.17;;;1.20;;
25988;SDS011;13778;48.236;9.894;2023-09-19T16:54:40;4.35;;;1.33;;
25988;SDS011;13778;48.236;9.894;2023-09-19T16:57:31;5.78;;;1.60;;
25988;SDS011;13778;48.236;9.894;2023-09-19T17:00:21;2.83;;;1.25;;
25988;SDS011;13778;48.236;9.894;2023-09-19T17:03:14;3.10;;;1.42;;
25988;SDS011;13778;48.236;9.894;2023-09-19T17:06:05;3.10;;;1.40;;
25988;SDS011;13778;48.236;9.894;2023-09-19T17:08:57;2.80;;;1.30;;
25988;SDS011;13778;48.236;9.894;2023-09-19T17:11:48;1.70;;;1.30;;
25988;SDS011;13778;48.236;9.894;2023-09-19T17:14:39;1.77;;;1.20;;
25988;SDS011;13778;48.236;9.894;2023-09-19T17:17:29;2.20;;;1.35;;
25988;SDS011;13778;48.236;9.894;2023-09-19T17:20:20;4.40;;;1.50;;
25988;SDS011;13778;48.236;9.894;2023-09-19T17:23:11;2.00;;;1.55;;
25988;SDS011;13778;48.236;9.894;2023-09-19T17:26:03;3.15;;;1.85;;
25988;SDS011;13778;48.236;9.894;2023-09-19T17:28:55;4.70;;;1.63;;
25988;SDS011;13778;48.236;9.894;2023-09-19T17:31:45;4.15;;;1.35;;
25988;SDS011;13778;48.236;9.894;2023-09-19T17:34:36;5.75;;;1.50;;
25988;SDS011;13778;48.236;9.894;2023-09-19T17:37:28;1.65;;;1.45;;
25988;SDS011;13778;48.236;9.894;2023-09-19T17:40:18;9.90;;;1.42;;
25988;SDS011;13778;48.236;9.894;2023-09-19T17:43:10;2.65;;;1.45;;
25988;SDS011;13778;48.236;9.894;2023-09-19T17:48:55;2.60;;;1.50;;
25988;SDS011;13778;48.236;9.894;2023-09-19T17:51:45;2.40;;;1.33;;
25988;SDS011;13778;48.236;9.894;2023-09-19T17:54:36;1.88;;;1.40;;
25988;SDS011;13778;48.236;9.894;2023-09-19T17:57:26;1.80;;;1.65;;
25988;SDS011;13778;48.236;9.894;2023-09-19T18:00:18;2.42;;;1.42;;
25988;SDS011;13778;48.236;9.894;2023-09-19T18:03:09;2.17;;;1.42;;
25988;SDS011;13778;48.236;9.894;2023-09-19T18:05:59;3.22;;;1.67;;
25988;SDS011;13778;48.236;9.894;2023-09-19T18:08:50;5.05;;;2.08;;
25988;SDS011;13778;48.236;9.894;2023-09-19T18:11:40;2.63;;;1.77;;
25988;SDS011;13778;48.236;9.894;2023-09-19T18:14:30;4.18;;;2.25;;